Airfield :
LOGIN :

Register | Disclaimer

   EN    FR    IT 

 










Legend :    VFR   Marginal VFR   IFR   Intensive IFR   Very Intensive IFR
Visi :
Ceiling :
>= 8 km
>= 3000ft
5 to 8 km
1000 to 3000 ft
1500m to 5 km
500 to 1000 ft
800 to 1500m
200 to 500 ft
< 800m
< 200 ft
Symbols :   Thunderstorms  Fog  Heavy snow  Heavy precipitations  Wind > 20 kt
SIGMETs :     Misc.  Thunderstorms  Icing  Turbulence  Mountain Waves  Volcanic Ashes






- Airport Elevation : 62 ft
- IATA code : ARH


ULAA - Talagi

CURRENT METAR :
  • 310130Z 01002MPS 320V040 9999 BKN025 04/01 Q1026 R08/CLRD68 NOSIG RMK QFE769/1025

EXPIRED METARs :
  • 310100Z 01002MPS 9999 BKN020 04/00 Q1026 R08/CLRD68 NOSIG RMK QFE769/1025
  • 310030Z 03003MPS 350V060 9999 BKN020 05/00 Q1026 R08/CLRD68 NOSIG RMK QFE769/1025
  • 310000Z 02004MPS 330V050 9999 BKN022 05/01 Q1026 R08/CLRD68 NOSIG RMK QFE769/1025
  • 302330Z 01004MPS 340V040 9999 BKN020 05/01 Q1026 R08/CLRD68 NOSIG RMK QFE769/1025
  • 302300Z 36004MPS 330V040 9999 BKN021 05/02 Q1026 R08/CLRD68 NOSIG RMK QFE769/1025
  • 302230Z 01004MPS 330V050 9999 OVC036 05/01 Q1026 R08/CLRD68 NOSIG RMK QFE769/1025

TAF TAF ULAA
Valid from the 31 at 00:00 until the 01 at 00:00 UTC


302300Z 3100/3124 02004MPS 9999 BKN017
TEMPO 3100/3106 35004G10MPS 6000 -SHRA FEW007 BKN015CB
TEMPO 3106/3124 36005G12MPS -SHRA BKN016CB



MET'MAP, your aeronautical weather chart ! - Copyright ORBIFLY December 2007 - Disclaimer

ORBIFLY MET'MAP TEAM :

Programming & Development : Alexandra Zaïnal
Concept & original design : Baudouin d'Aumeries
Assistance for programming : Marc-Olivier Méhu
Technical & hardware support : Manuel Goepfert

Contact : metmap@orbifly.com




SOURCES & CREDITS :

   NOAA